Greenwich, CT

6:14 PM EST on February 26, 2015 (GMT -0500)
MARITIME | Change Station
CLOSE
Current Station
Personal Weather Station
Location: Greenwich, CT
Elevation: 0 ft
Nearby Weather Stations

Elev 0 ft 41.00 °N, 73.60 °W | Updated 6 days ago

Mostly Cloudy
Mostly Cloudy
25 °F
Feels Like 16 °F
N
9
Wind Variable Wind from NNE
Gusts 12 mph

Today
High -- | Low -- °F
--% Chance of Precip.
Yesterday
High -- | Low -- °F
Precip. -- in
6:33 AM 5:41 PM
Waxing Gibbous, 63% visible
Pressure 30.02 in
Visibility 10.0 miles
Clouds Overcast 8000 ft
Windchill 16 °F
Dew Point 12 °F
Humidity 57%
Rainfall -999.00 in
Snow Depth Not available.
UV 0 out of 12
Pollen .40 out of 12
Air Quality Not available.
Flu Activity Not available.
METAR KHPN 262256Z 33007KT 10SM OVC080 M05/M11 A2999 RMK AO2 SLP166 T10501111

More Conditions Fewer Conditions

Pressure 30.02 in
Visibility 10.0 miles
Clouds Overcast 8000 ft
Windchill 16 °F
Dew Point 12 °F
Humidity 57%
Rainfall -999.00 in
Snow Depth Not available.
UV 0 out of 12
Pollen .40 out of 12
Air Quality Not available.
Flu Activity Not available.
METAR KHPN 262256Z 33007KT 10SM OVC080 M05/M11 A2999 RMK AO2 SLP166 T10501111

More Conditions Fewer Conditions

10-Day Weather Forecast

Almanac

Astronomy

Feb. 26, 2015 Rise Set
Actual Time
Civil Twilight
Nautical Twilight
Astronomical Twilight
Moon
Length of Visible Light
Length of Day
Tomorrow will be .
, % of the Moon is Illuminated

Today's Extremes

State Highs State Lows

Community

WunderPhotos

Upload Photos

1,800,523 photos uploaded!

WunderBlogs® & News

Nearby

Air Quality

  Air Quality AQ Index Pollutant
Not available.

Snow Depth

Station Depth Elevation

Earthquake Activity

City Distance Mag. Time & Date
Minimum magnitude displayed is 2.5.

Coastal Water Temperatures

Place Temperature

Nearby Weather Stations